createdAt,value
2022-08-24T00:00:54.021Z,1.30
2022-08-24T00:01:54.200Z,1.30
2022-08-24T00:02:54.082Z,1.30
2022-08-24T00:03:55.308Z,1.30
2022-08-24T00:04:53.974Z,1.40
2022-08-24T00:05:53.982Z,1.60
2022-08-24T00:06:53.956Z,1.30
2022-08-24T00:07:53.981Z,1.50
2022-08-24T00:08:53.945Z,1.50
2022-08-24T00:09:53.939Z,1.40
2022-08-24T00:10:53.910Z,1.70
2022-08-24T00:11:53.913Z,1.30
2022-08-24T00:12:53.900Z,1.50
2022-08-24T00:13:53.883Z,1.50
2022-08-24T00:14:53.868Z,1.30
2022-08-24T00:15:53.875Z,1.40
2022-08-24T00:16:53.880Z,1.30
2022-08-24T00:17:53.862Z,1.40
2022-08-24T00:18:53.831Z,1.30
2022-08-24T00:19:53.820Z,1.40
2022-08-24T00:20:53.804Z,1.30
2022-08-24T00:21:53.803Z,1.20
2022-08-24T00:22:53.810Z,1.50
2022-08-24T00:23:53.776Z,1.20
2022-08-24T00:24:53.771Z,1.40
2022-08-24T00:25:53.759Z,1.30
2022-08-24T00:26:53.755Z,1.10
2022-08-24T00:27:53.752Z,1.10
2022-08-24T00:28:53.722Z,1.50
2022-08-24T00:29:53.728Z,1.40
2022-08-24T00:30:53.710Z,1.40
2022-08-24T00:31:53.773Z,1.40
2022-08-24T00:32:53.698Z,1.40
2022-08-24T00:33:53.677Z,1.30
2022-08-24T00:34:59.238Z,1.40
2022-08-24T00:35:53.656Z,1.20
2022-08-24T00:36:53.643Z,1.40
2022-08-24T00:37:53.664Z,1.20
2022-08-24T00:38:53.615Z,1.40
2022-08-24T00:39:53.706Z,1.30
2022-08-24T00:40:53.603Z,1.70
2022-08-24T00:41:53.596Z,1.40
2022-08-24T00:42:53.596Z,1.60
2022-08-24T00:43:53.570Z,1.20
2022-08-24T00:44:53.555Z,1.50
2022-08-24T00:45:53.619Z,1.60
2022-08-24T00:46:53.534Z,1.60
2022-08-24T00:47:53.539Z,1.50
2022-08-24T00:48:53.517Z,1.50
2022-08-24T00:49:53.505Z,1.70
2022-08-24T00:50:53.495Z,1.20
2022-08-24T00:51:53.487Z,1.70
2022-08-24T00:52:53.643Z,1.50
2022-08-24T00:53:53.465Z,1.50
2022-08-24T00:54:53.451Z,1.60
2022-08-24T00:55:53.443Z,1.50
2022-08-24T00:56:53.425Z,1.50
2022-08-24T00:57:53.475Z,1.30
2022-08-24T00:58:57.051Z,1.50
2022-08-24T00:59:53.401Z,1.20
2022-08-24T01:00:53.447Z,1.80
2022-08-24T01:01:53.441Z,1.70
2022-08-24T01:02:53.376Z,1.50
2022-08-24T01:03:56.840Z,1.50
2022-08-24T01:04:53.341Z,1.60
2022-08-24T01:05:53.339Z,1.40
2022-08-24T01:06:53.334Z,1.60
2022-08-24T01:07:53.325Z,1.50
2022-08-24T01:08:56.780Z,1.40
2022-08-24T01:09:53.303Z,1.30
2022-08-24T01:10:53.283Z,1.50
2022-08-24T01:11:53.292Z,1.40
2022-08-24T01:13:00.602Z,1.60
2022-08-24T01:13:53.291Z,1.60
2022-08-24T01:14:53.243Z,1.70
2022-08-24T01:15:53.266Z,1.50
2022-08-24T01:16:53.226Z,1.60
2022-08-24T01:17:53.219Z,1.80
2022-08-24T01:18:53.213Z,1.30
2022-08-24T01:19:53.207Z,1.40
2022-08-24T01:20:53.176Z,1.80
2022-08-24T01:21:53.176Z,1.40
2022-08-24T01:22:53.152Z,1.60
2022-08-24T01:23:53.171Z,1.60
2022-08-24T01:24:53.138Z,1.50
2022-08-24T01:25:53.143Z,1.60
2022-08-24T01:26:53.113Z,1.60
2022-08-24T01:27:53.107Z,1.40
2022-08-24T01:28:53.129Z,1.40
2022-08-24T01:29:53.086Z,1.60
2022-08-24T01:30:53.081Z,1.70
2022-08-24T01:31:53.170Z,1.70
2022-08-24T01:32:53.061Z,1.60
2022-08-24T01:33:53.067Z,1.80
2022-08-24T01:34:53.038Z,1.70
2022-08-24T01:35:53.027Z,1.60
2022-08-24T01:36:53.022Z,2.00
2022-08-24T01:37:53.012Z,1.70
2022-08-24T01:38:53.007Z,1.70
2022-08-24T01:39:53.034Z,1.60
2022-08-24T01:40:52.975Z,1.70
2022-08-24T01:41:52.966Z,1.60
2022-08-24T01:42:52.973Z,1.50
2022-08-24T01:43:52.945Z,1.70
2022-08-24T01:44:52.929Z,1.80
2022-08-24T01:45:52.937Z,1.90
2022-08-24T01:46:53.038Z,1.60
2022-08-24T01:47:52.935Z,2.30
2022-08-24T01:48:52.904Z,1.70
2022-08-24T01:49:52.901Z,2.40
2022-08-24T01:50:52.945Z,2.50
2022-08-24T01:51:52.857Z,2.30
2022-08-24T01:53:04.799Z,2.80
2022-08-24T01:53:52.836Z,2.50
2022-08-24T01:54:52.841Z,2.50
2022-08-24T01:55:52.812Z,2.60
2022-08-24T01:56:52.811Z,2.60
2022-08-24T01:57:52.803Z,2.80
2022-08-24T01:58:52.779Z,2.50
2022-08-24T01:59:52.770Z,2.60
2022-08-24T02:00:52.753Z,2.60
2022-08-24T02:01:52.835Z,2.70
2022-08-24T02:02:52.863Z,2.80
2022-08-24T02:03:52.724Z,3.40
2022-08-24T02:04:52.720Z,2.80
2022-08-24T02:05:52.733Z,3.50
2022-08-24T02:06:52.691Z,3.20
2022-08-24T02:07:52.701Z,3.70
2022-08-24T02:08:52.675Z,3.50
2022-08-24T02:09:52.677Z,3.60
2022-08-24T02:10:54.990Z,3.70
2022-08-24T02:11:52.652Z,3.80
2022-08-24T02:12:52.645Z,3.20
2022-08-24T02:13:52.624Z,4.00
2022-08-24T02:14:52.613Z,3.70
2022-08-24T02:15:52.650Z,3.90
2022-08-24T02:16:52.591Z,4.30
2022-08-24T02:17:52.608Z,3.90
2022-08-24T02:18:52.563Z,4.20
2022-08-24T02:19:52.565Z,4.00
2022-08-24T02:20:52.543Z,4.30
2022-08-24T02:21:52.533Z,4.70
2022-08-24T02:22:52.558Z,4.30
2022-08-24T02:23:52.516Z,4.30
2022-08-24T02:24:52.506Z,3.70
2022-08-24T02:25:52.493Z,4.20
2022-08-24T02:26:52.495Z,4.40
2022-08-24T02:27:52.482Z,4.40
2022-08-24T02:28:52.463Z,4.40
2022-08-24T02:29:52.447Z,4.10
2022-08-24T02:30:52.460Z,4.20
2022-08-24T02:31:52.444Z,4.70
2022-08-24T02:32:52.451Z,4.80
2022-08-24T02:33:52.425Z,4.30
2022-08-24T02:34:54.846Z,4.60
2022-08-24T02:35:52.386Z,3.90
2022-08-24T02:36:52.383Z,3.90
2022-08-24T02:37:52.388Z,4.70
2022-08-24T02:38:52.382Z,4.50
2022-08-24T02:39:52.412Z,4.60
2022-08-24T02:40:52.350Z,4.40
2022-08-24T02:41:52.327Z,5.00
2022-08-24T02:42:52.328Z,4.70
2022-08-24T02:43:52.310Z,5.20
2022-08-24T02:44:52.309Z,4.90
2022-08-24T02:45:52.293Z,4.90
2022-08-24T02:46:52.274Z,4.80
2022-08-24T02:47:52.281Z,5.10
2022-08-24T02:49:01.828Z,4.20
2022-08-24T02:49:52.244Z,4.10
2022-08-24T02:50:52.245Z,4.60
2022-08-24T02:51:52.216Z,4.80
2022-08-24T02:52:52.226Z,4.60
2022-08-24T02:53:52.198Z,5.50
2022-08-24T02:54:52.198Z,4.40
2022-08-24T02:55:52.179Z,4.90
2022-08-24T02:56:52.167Z,4.50
2022-08-24T02:57:52.174Z,4.80
2022-08-24T02:58:52.155Z,5.00
2022-08-24T02:59:52.135Z,4.70
2022-08-24T03:00:52.125Z,5.10
2022-08-24T03:01:52.183Z,4.40
2022-08-24T03:02:52.188Z,4.80
2022-08-24T03:03:52.096Z,5.30
2022-08-24T03:04:52.085Z,5.60
2022-08-24T03:05:52.077Z,5.60
2022-08-24T03:06:52.065Z,5.60
2022-08-24T03:07:52.288Z,5.70
2022-08-24T03:08:56.500Z,5.10
2022-08-24T03:09:52.040Z,5.80
2022-08-24T03:10:52.024Z,5.20
2022-08-24T03:11:52.014Z,5.20
2022-08-24T03:12:52.026Z,5.00
2022-08-24T03:13:51.993Z,4.80
2022-08-24T03:14:51.988Z,4.80
2022-08-24T03:15:52.029Z,5.30
2022-08-24T03:16:51.961Z,5.00
2022-08-24T03:17:51.962Z,4.70
2022-08-24T03:18:51.961Z,4.20
2022-08-24T03:19:51.925Z,4.60
2022-08-24T03:20:51.913Z,4.80
2022-08-24T03:21:57.954Z,5.00
2022-08-24T03:22:51.927Z,5.10
2022-08-24T03:23:54.555Z,5.30
2022-08-24T03:24:51.881Z,5.50
2022-08-24T03:25:51.870Z,5.60
2022-08-24T03:26:51.856Z,5.10
2022-08-24T03:27:51.859Z,5.20
2022-08-24T03:28:51.939Z,5.70
2022-08-24T03:29:51.824Z,5.10
2022-08-24T03:30:51.956Z,5.10
2022-08-24T03:31:51.796Z,5.20
2022-08-24T03:32:51.823Z,5.60
2022-08-24T03:33:51.784Z,5.50
2022-08-24T03:34:51.733Z,5.50
2022-08-24T03:35:51.762Z,5.30
2022-08-24T03:36:51.751Z,4.60
2022-08-24T03:37:51.754Z,5.40
2022-08-24T03:38:51.730Z,5.30
2022-08-24T03:39:51.757Z,5.20
2022-08-24T03:40:51.707Z,5.10
2022-08-24T03:41:51.694Z,5.50
2022-08-24T03:42:51.722Z,5.00
2022-08-24T03:43:51.627Z,4.60
2022-08-24T03:44:51.609Z,5.10
2022-08-24T03:45:51.680Z,5.40
2022-08-24T03:46:51.588Z,5.00
2022-08-24T03:47:51.589Z,4.90
2022-08-24T03:48:51.575Z,5.50
2022-08-24T03:49:51.564Z,5.20
2022-08-24T03:50:51.556Z,4.90
2022-08-24T03:51:51.558Z,5.10
2022-08-24T03:52:51.546Z,4.70
2022-08-24T03:53:51.515Z,5.00
2022-08-24T03:54:51.507Z,5.00
2022-08-24T03:55:51.491Z,5.80
2022-08-24T03:56:51.489Z,5.60
2022-08-24T03:57:51.483Z,5.90
2022-08-24T03:58:51.480Z,5.30
2022-08-24T03:59:51.447Z,5.00
2022-08-24T04:00:51.479Z,5.50
2022-08-24T04:01:51.444Z,5.30
2022-08-24T04:02:51.482Z,4.80
2022-08-24T04:03:51.411Z,4.70
2022-08-24T04:04:51.408Z,4.90
2022-08-24T04:05:51.385Z,5.00
2022-08-24T04:06:51.377Z,5.20
2022-08-24T04:07:51.384Z,5.30
2022-08-24T04:08:51.397Z,5.40
2022-08-24T04:09:51.351Z,5.20
2022-08-24T04:10:51.341Z,4.80
2022-08-24T04:11:51.829Z,5.00
2022-08-24T04:12:51.349Z,4.80
2022-08-24T04:13:51.302Z,5.40
2022-08-24T04:14:51.296Z,6.10
2022-08-24T04:15:51.306Z,5.60
2022-08-24T04:16:51.694Z,4.80
2022-08-24T04:17:51.265Z,5.40
2022-08-24T04:18:51.268Z,5.10
2022-08-24T04:19:51.249Z,5.20
2022-08-24T04:20:51.267Z,4.70
2022-08-24T04:21:51.252Z,5.30
2022-08-24T04:22:51.227Z,5.70
2022-08-24T04:23:51.205Z,5.50
2022-08-24T04:24:51.200Z,6.00
2022-08-24T04:25:51.178Z,5.50
2022-08-24T04:26:51.175Z,5.00
2022-08-24T04:27:51.172Z,5.30
2022-08-24T04:28:51.152Z,5.70
2022-08-24T04:29:51.131Z,5.10
2022-08-24T04:30:51.134Z,6.30
2022-08-24T04:31:51.163Z,6.40
2022-08-24T04:32:51.125Z,4.70
2022-08-24T04:33:53.836Z,5.70
2022-08-24T04:34:51.095Z,5.50
2022-08-24T04:35:51.077Z,5.30
2022-08-24T04:36:51.076Z,4.90
2022-08-24T04:37:51.070Z,5.60
2022-08-24T04:38:51.060Z,5.00
2022-08-24T04:39:51.097Z,5.80
2022-08-24T04:40:51.029Z,5.90
2022-08-24T04:41:51.009Z,5.70
2022-08-24T04:42:51.019Z,5.30
2022-08-24T04:43:51.028Z,4.80
2022-08-24T04:44:51.012Z,5.20
2022-08-24T04:45:51.023Z,5.50
2022-08-24T04:46:51.156Z,5.00
2022-08-24T04:47:51.182Z,5.20
2022-08-24T04:48:50.971Z,4.90
2022-08-24T04:49:50.943Z,4.50
2022-08-24T04:50:50.924Z,5.30
2022-08-24T04:51:50.929Z,5.10
2022-08-24T04:52:50.911Z,4.50
2022-08-24T04:53:50.890Z,5.20
2022-08-24T04:54:50.886Z,5.10
2022-08-24T04:55:50.870Z,4.70
2022-08-24T04:56:50.854Z,5.20
2022-08-24T04:57:50.859Z,4.80
2022-08-24T04:58:50.886Z,5.70
2022-08-24T04:59:50.861Z,5.90
2022-08-24T05:00:50.939Z,5.50
2022-08-24T05:01:50.912Z,6.00
2022-08-24T05:02:50.924Z,5.50
2022-08-24T05:03:50.807Z,6.20
2022-08-24T05:04:50.801Z,5.40
2022-08-24T05:05:50.789Z,6.00
2022-08-24T05:06:52.985Z,5.40
2022-08-24T05:07:54.685Z,5.30
2022-08-24T05:08:50.863Z,5.70
2022-08-24T05:09:52.379Z,5.40
2022-08-24T05:10:50.762Z,5.90
2022-08-24T05:11:50.773Z,5.80
2022-08-24T05:12:50.765Z,5.50
2022-08-24T05:13:50.678Z,6.40
2022-08-24T05:14:50.709Z,6.10
2022-08-24T05:15:50.790Z,5.70
2022-08-24T05:16:53.118Z,5.40
2022-08-24T05:17:51.343Z,5.60
2022-08-24T05:18:50.728Z,4.90
2022-08-24T05:19:50.630Z,5.90
2022-08-24T05:20:50.655Z,12.40
2022-08-24T05:21:50.656Z,6.70
2022-08-24T05:22:55.409Z,5.00
2022-08-24T05:23:50.616Z,6.10
2022-08-24T05:24:50.631Z,5.40
2022-08-24T05:25:50.576Z,5.20
2022-08-24T05:26:50.607Z,4.90
2022-08-24T05:27:50.547Z,5.20
2022-08-24T05:28:50.570Z,5.10
2022-08-24T05:29:50.568Z,4.60
2022-08-24T05:30:51.151Z,4.80
2022-08-24T05:31:50.593Z,5.10
2022-08-24T05:32:50.534Z,5.40
2022-08-24T05:33:50.502Z,4.80
2022-08-24T05:34:50.464Z,4.60
2022-08-24T05:35:50.598Z,4.20
2022-08-24T05:36:50.467Z,5.00
2022-08-24T05:37:50.490Z,6.30
2022-08-24T05:38:50.497Z,5.40
2022-08-24T05:39:50.480Z,4.70
2022-08-24T05:40:50.564Z,4.50
2022-08-24T05:41:50.435Z,5.10
2022-08-24T05:42:50.444Z,3.80
2022-08-24T05:43:50.373Z,4.70
2022-08-24T05:44:50.433Z,4.80
2022-08-24T05:45:50.342Z,4.50
2022-08-24T05:46:50.412Z,4.70
2022-08-24T05:47:50.410Z,4.90
2022-08-24T05:48:53.194Z,5.70
2022-08-24T05:49:50.323Z,4.70
2022-08-24T05:50:50.329Z,4.70
2022-08-24T05:51:50.283Z,4.70
2022-08-24T05:52:50.325Z,4.60
2022-08-24T05:53:50.320Z,4.30
2022-08-24T05:54:50.296Z,4.40
2022-08-24T05:55:50.303Z,3.80
2022-08-24T05:56:50.256Z,4.30
2022-08-24T05:57:50.248Z,3.90
2022-08-24T05:58:50.231Z,4.30
2022-08-24T05:59:50.211Z,4.50
2022-08-24T06:00:50.223Z,3.60
2022-08-24T06:01:50.278Z,4.00
2022-08-24T06:02:50.435Z,4.50
2022-08-24T06:03:50.155Z,4.00
2022-08-24T06:04:50.195Z,3.60
2022-08-24T06:05:50.167Z,3.40
2022-08-24T06:06:50.187Z,3.80
2022-08-24T06:07:50.166Z,4.10
2022-08-24T06:08:50.212Z,3.70
2022-08-24T06:09:50.148Z,3.70
2022-08-24T06:10:50.104Z,4.00
2022-08-24T06:11:50.088Z,3.70
2022-08-24T06:12:50.109Z,3.70
2022-08-24T06:13:53.717Z,3.60
2022-08-24T06:14:50.087Z,4.00
2022-08-24T06:16:10.949Z,3.80
2022-08-24T06:16:50.237Z,3.60
2022-08-24T06:17:50.102Z,3.70
2022-08-24T06:18:50.053Z,4.00
2022-08-24T06:19:50.020Z,3.20
2022-08-24T06:20:49.988Z,4.00
2022-08-24T06:21:49.976Z,3.80
2022-08-24T06:22:49.973Z,3.50
2022-08-24T06:23:50.105Z,3.80
2022-08-24T06:24:49.947Z,3.60
2022-08-24T06:25:49.980Z,3.90
2022-08-24T06:26:50.498Z,3.80
2022-08-24T06:27:49.964Z,3.90
2022-08-24T06:28:49.913Z,3.80
2022-08-24T06:29:50.038Z,3.90
2022-08-24T06:30:49.923Z,3.80
2022-08-24T06:31:54.240Z,4.20
2022-08-24T06:32:50.182Z,3.70
2022-08-24T06:33:49.892Z,3.50
2022-08-24T06:34:49.849Z,3.60
2022-08-24T06:35:49.851Z,3.80
2022-08-24T06:36:49.841Z,3.90
2022-08-24T06:37:49.819Z,3.90
2022-08-24T06:38:49.776Z,4.20
2022-08-24T06:39:55.069Z,4.00
2022-08-24T06:40:49.771Z,4.10
2022-08-24T06:41:49.753Z,3.60
2022-08-24T06:42:49.749Z,4.00
2022-08-24T06:43:49.741Z,3.80
2022-08-24T06:44:49.716Z,3.80
2022-08-24T06:45:49.712Z,3.80
2022-08-24T06:46:49.711Z,3.30
2022-08-24T06:47:49.710Z,3.80
2022-08-24T06:48:49.675Z,4.40
2022-08-24T06:49:49.670Z,3.80
2022-08-24T06:50:49.652Z,3.80
2022-08-24T06:51:50.888Z,3.90
2022-08-24T06:52:49.652Z,4.10
2022-08-24T06:53:49.631Z,4.10
2022-08-24T06:54:49.612Z,4.00
2022-08-24T06:55:49.609Z,3.40
2022-08-24T06:56:49.591Z,4.00
2022-08-24T06:57:52.463Z,3.80
2022-08-24T06:58:49.568Z,4.30
2022-08-24T06:59:49.569Z,3.60
2022-08-24T07:00:49.548Z,4.00
2022-08-24T07:01:49.620Z,4.80
2022-08-24T07:02:49.584Z,4.20
2022-08-24T07:03:49.532Z,4.60
2022-08-24T07:04:49.507Z,3.70
2022-08-24T07:05:49.498Z,4.00
2022-08-24T07:06:49.485Z,4.10
2022-08-24T07:07:49.494Z,4.10
2022-08-24T07:08:49.461Z,4.20
2022-08-24T07:09:49.456Z,4.00
2022-08-24T07:10:49.445Z,3.90
2022-08-24T07:11:49.442Z,4.60
2022-08-24T07:12:49.429Z,3.60
2022-08-24T07:13:49.414Z,4.00
2022-08-24T07:14:49.413Z,4.00
2022-08-24T07:15:49.558Z,3.80
2022-08-24T07:16:49.382Z,4.40
2022-08-24T07:17:49.390Z,4.60
2022-08-24T07:18:50.598Z,3.90
2022-08-24T07:19:49.367Z,4.00
2022-08-24T07:20:49.337Z,3.80
2022-08-24T07:21:49.369Z,4.50
2022-08-24T07:22:49.331Z,3.70
2022-08-24T07:23:49.313Z,4.20
2022-08-24T07:24:49.300Z,3.80
2022-08-24T07:25:54.162Z,3.80
2022-08-24T07:26:49.281Z,3.90
2022-08-24T07:27:49.292Z,3.80
2022-08-24T07:28:49.283Z,3.90
2022-08-24T07:30:00.098Z,4.00
2022-08-24T07:30:49.309Z,3.50
2022-08-24T07:31:49.235Z,3.80
2022-08-24T07:32:49.225Z,3.40
2022-08-24T07:33:49.213Z,3.40
2022-08-24T07:34:49.217Z,3.90
2022-08-24T07:35:49.196Z,3.90
2022-08-24T07:36:49.171Z,3.40
2022-08-24T07:37:49.199Z,3.50
2022-08-24T07:38:49.150Z,3.70
2022-08-24T07:39:49.305Z,3.40
2022-08-24T07:41:14.357Z,4.10
2022-08-24T07:42:11.569Z,3.80
2022-08-24T07:42:49.129Z,3.50
2022-08-24T07:43:49.102Z,3.70
2022-08-24T07:44:49.089Z,3.70
2022-08-24T07:45:49.084Z,3.50
2022-08-24T07:46:49.165Z,3.30
2022-08-24T07:47:55.113Z,3.30
2022-08-24T07:48:56.135Z,3.20
2022-08-24T07:49:49.048Z,3.30
2022-08-24T07:50:49.042Z,3.80
2022-08-24T07:51:49.047Z,3.40
2022-08-24T07:52:49.023Z,3.10
2022-08-24T07:53:53.874Z,3.90
2022-08-24T07:54:48.990Z,3.10
2022-08-24T07:55:48.978Z,3.30
2022-08-24T07:56:48.965Z,3.50
2022-08-24T07:57:48.990Z,3.40
2022-08-24T07:58:48.939Z,3.80
2022-08-24T07:59:48.942Z,4.40
2022-08-24T08:00:48.921Z,3.80
2022-08-24T08:01:48.989Z,4.30
2022-08-24T08:02:48.999Z,3.90
2022-08-24T08:03:50.053Z,4.30
2022-08-24T08:04:48.881Z,3.50
2022-08-24T08:05:48.875Z,4.30
2022-08-24T08:06:48.889Z,4.30
2022-08-24T08:07:51.680Z,3.50
2022-08-24T08:08:48.837Z,3.40
2022-08-24T08:09:48.907Z,4.00
2022-08-24T08:10:48.833Z,3.50
2022-08-24T08:11:48.826Z,3.70
2022-08-24T08:12:48.795Z,3.80
2022-08-24T08:13:48.792Z,4.20
2022-08-24T08:14:48.778Z,3.40
2022-08-24T08:15:48.820Z,3.60
2022-08-24T08:16:48.786Z,3.70
2022-08-24T08:17:55.812Z,3.50
2022-08-24T08:18:52.344Z,3.70
2022-08-24T08:19:48.739Z,3.80
2022-08-24T08:20:48.717Z,4.20
2022-08-24T08:21:48.725Z,3.50
2022-08-24T08:22:48.691Z,3.20
2022-08-24T08:23:48.693Z,3.30
2022-08-24T08:24:48.669Z,3.60
2022-08-24T08:25:48.668Z,3.10
2022-08-24T08:26:48.669Z,3.40
2022-08-24T08:27:48.658Z,3.70
2022-08-24T08:28:48.632Z,3.70
2022-08-24T08:29:48.627Z,3.50
2022-08-24T08:30:48.643Z,3.30
2022-08-24T08:31:48.620Z,3.30
2022-08-24T08:32:48.592Z,3.30
2022-08-24T08:33:48.619Z,3.40
2022-08-24T08:34:48.567Z,3.20
2022-08-24T08:35:48.559Z,3.20
2022-08-24T08:36:48.568Z,3.10
2022-08-24T08:37:48.542Z,3.50
2022-08-24T08:38:48.530Z,3.20
2022-08-24T08:39:48.553Z,3.20
2022-08-24T08:40:48.499Z,3.30
2022-08-24T08:41:48.499Z,3.40
2022-08-24T08:42:48.509Z,3.60
2022-08-24T08:43:48.476Z,3.50
2022-08-24T08:44:48.463Z,3.60
2022-08-24T08:45:48.484Z,3.50
2022-08-24T08:46:48.459Z,3.10
2022-08-24T08:47:48.530Z,3.40
2022-08-24T08:48:48.443Z,3.40
2022-08-24T08:49:48.444Z,3.30
2022-08-24T08:50:48.403Z,3.60
2022-08-24T08:51:48.395Z,3.00
2022-08-24T08:52:48.396Z,3.20
2022-08-24T08:53:48.376Z,3.70
2022-08-24T08:54:48.842Z,3.30
2022-08-24T08:55:48.349Z,3.20
2022-08-24T08:56:48.335Z,3.20
2022-08-24T08:57:48.343Z,3.10
2022-08-24T08:58:51.111Z,4.00
2022-08-24T08:59:48.312Z,3.10
2022-08-24T09:00:48.300Z,2.90
2022-08-24T09:01:48.321Z,3.40
2022-08-24T09:02:48.300Z,3.10
2022-08-24T09:03:48.279Z,3.10
2022-08-24T09:04:48.285Z,3.00
2022-08-24T09:05:48.258Z,3.40
2022-08-24T09:06:48.237Z,3.60
2022-08-24T09:07:48.249Z,3.10
2022-08-24T09:08:48.210Z,3.60
2022-08-24T09:09:48.232Z,3.70
2022-08-24T09:10:48.191Z,3.40
2022-08-24T09:11:48.185Z,3.30
2022-08-24T09:12:48.190Z,3.80
2022-08-24T09:13:48.167Z,3.50
2022-08-24T09:14:48.145Z,3.20
2022-08-24T09:15:48.141Z,3.60
2022-08-24T09:16:48.220Z,3.80
2022-08-24T09:17:48.135Z,4.00
2022-08-24T09:18:48.108Z,3.60
2022-08-24T09:19:48.108Z,3.90
2022-08-24T09:20:48.087Z,4.20
2022-08-24T09:21:48.094Z,4.20
2022-08-24T09:22:54.111Z,3.80
2022-08-24T09:23:48.715Z,4.00
2022-08-24T09:24:48.678Z,3.40
2022-08-24T09:25:48.748Z,4.20
2022-08-24T09:26:48.046Z,3.70
2022-08-24T09:27:51.448Z,3.90
2022-08-24T09:28:47.999Z,3.70
2022-08-24T09:29:47.995Z,3.60
2022-08-24T09:30:48.032Z,4.10
2022-08-24T09:31:47.995Z,3.60
2022-08-24T09:32:49.492Z,3.60
2022-08-24T09:33:47.972Z,3.60
2022-08-24T09:34:47.940Z,3.90
2022-08-24T09:35:47.936Z,3.80
2022-08-24T09:36:47.964Z,3.70
2022-08-24T09:37:47.914Z,3.50
2022-08-24T09:38:47.903Z,3.70
2022-08-24T09:39:47.999Z,3.60
2022-08-24T09:40:47.891Z,4.20
2022-08-24T09:41:47.882Z,4.00
2022-08-24T09:42:47.865Z,3.50
2022-08-24T09:43:47.844Z,4.50
2022-08-24T09:44:47.840Z,4.70
2022-08-24T09:45:47.854Z,5.10
2022-08-24T09:46:47.826Z,4.40
2022-08-24T09:47:47.807Z,4.90
2022-08-24T09:48:47.792Z,4.60
2022-08-24T09:49:47.790Z,4.90
2022-08-24T09:50:47.808Z,4.40
2022-08-24T09:51:47.775Z,4.50
2022-08-24T09:52:47.751Z,5.00
2022-08-24T09:53:47.742Z,4.30
2022-08-24T09:54:47.733Z,4.20
2022-08-24T09:55:47.729Z,4.30
2022-08-24T09:56:47.705Z,4.60
2022-08-24T09:58:00.458Z,3.60
2022-08-24T09:58:47.690Z,4.40
2022-08-24T09:59:47.697Z,4.40
2022-08-24T10:00:47.758Z,4.40
2022-08-24T10:01:47.661Z,4.20
2022-08-24T10:02:47.645Z,4.80
2022-08-24T10:03:47.637Z,5.00
2022-08-24T10:04:47.737Z,4.60
2022-08-24T10:05:47.785Z,4.60
2022-08-24T10:06:47.598Z,4.50
2022-08-24T10:07:47.597Z,4.50
2022-08-24T10:08:47.588Z,4.20
2022-08-24T10:09:47.572Z,4.10
2022-08-24T10:10:47.588Z,4.30
2022-08-24T10:11:47.557Z,4.60
2022-08-24T10:12:47.533Z,3.90
2022-08-24T10:13:47.533Z,4.00
2022-08-24T10:14:47.514Z,4.30
2022-08-24T10:15:47.527Z,3.70
2022-08-24T10:16:47.551Z,3.80
2022-08-24T10:17:47.499Z,4.30
2022-08-24T10:18:47.471Z,3.90
2022-08-24T10:19:47.477Z,4.00
2022-08-24T10:20:47.482Z,3.70
2022-08-24T10:21:47.501Z,4.20
2022-08-24T10:22:47.454Z,4.10
2022-08-24T10:23:47.440Z,4.30
2022-08-24T10:24:47.407Z,4.20
2022-08-24T10:25:47.415Z,4.20
2022-08-24T10:26:47.394Z,4.30
2022-08-24T10:27:47.385Z,4.00
2022-08-24T10:28:47.374Z,3.80
2022-08-24T10:29:47.365Z,4.00
2022-08-24T10:30:47.355Z,3.80
2022-08-24T10:31:47.350Z,3.70
2022-08-24T10:32:47.330Z,3.40
2022-08-24T10:33:47.321Z,4.10
2022-08-24T10:34:47.330Z,4.00
2022-08-24T10:35:47.306Z,3.70
2022-08-24T10:36:47.286Z,3.90
2022-08-24T10:37:47.275Z,3.70
2022-08-24T10:38:47.260Z,4.30
2022-08-24T10:39:47.306Z,3.90
2022-08-24T10:40:47.253Z,4.10
2022-08-24T10:41:47.232Z,4.20
2022-08-24T10:42:47.227Z,3.90
2022-08-24T10:43:47.218Z,4.30
2022-08-24T10:44:47.213Z,4.10
2022-08-24T10:45:48.192Z,3.80
2022-08-24T10:46:47.180Z,4.20
2022-08-24T10:47:47.177Z,4.10
2022-08-24T10:48:47.151Z,4.00
2022-08-24T10:49:47.176Z,4.20
2022-08-24T10:50:47.153Z,4.20
2022-08-24T10:51:47.119Z,4.40
2022-08-24T10:52:47.129Z,4.10
2022-08-24T10:53:47.126Z,3.90
2022-08-24T10:54:47.107Z,3.90
2022-08-24T10:55:47.088Z,3.90
2022-08-24T10:56:47.077Z,4.20
2022-08-24T10:57:47.063Z,4.50
2022-08-24T10:58:47.062Z,4.50
2022-08-24T10:59:47.065Z,4.10
2022-08-24T11:00:47.093Z,3.70
2022-08-24T11:01:47.097Z,3.70
2022-08-24T11:02:47.021Z,3.90
2022-08-24T11:03:47.001Z,6.20
2022-08-24T11:04:47.032Z,11.90
2022-08-24T11:05:47.025Z,5.20
2022-08-24T11:06:46.974Z,8.30
2022-08-24T11:07:46.957Z,7.90
2022-08-24T11:08:46.955Z,7.10
2022-08-24T11:09:46.963Z,6.20
2022-08-24T11:10:46.928Z,4.90
2022-08-24T11:11:46.925Z,5.10
2022-08-24T11:12:46.910Z,5.00
2022-08-24T11:13:46.896Z,4.90
2022-08-24T11:14:46.908Z,4.70
2022-08-24T11:15:46.871Z,4.50
2022-08-24T11:16:46.942Z,4.50
2022-08-24T11:17:46.851Z,4.10
2022-08-24T11:18:46.857Z,4.50
2022-08-24T11:19:46.852Z,4.30
2022-08-24T11:20:46.837Z,4.50
2022-08-24T11:21:46.813Z,4.50
2022-08-24T11:22:46.804Z,4.00
2022-08-24T11:23:46.790Z,4.40
2022-08-24T11:24:46.809Z,4.40
2022-08-24T11:25:46.769Z,4.10
2022-08-24T11:26:46.783Z,4.30
2022-08-24T11:27:46.754Z,3.90
2022-08-24T11:28:46.747Z,4.80
2022-08-24T11:29:46.808Z,4.20
2022-08-24T11:30:46.718Z,3.10
2022-08-24T11:31:46.777Z,3.60
2022-08-24T11:32:46.720Z,3.80
2022-08-24T11:33:46.701Z,3.50
2022-08-24T11:34:46.693Z,4.00
2022-08-24T11:35:46.672Z,3.50
2022-08-24T11:36:46.661Z,3.90
2022-08-24T11:37:46.658Z,3.80
2022-08-24T11:38:46.643Z,3.70
2022-08-24T11:39:46.666Z,3.60
2022-08-24T11:40:46.619Z,3.80
2022-08-24T11:41:46.598Z,3.70
2022-08-24T11:42:46.594Z,3.70
2022-08-24T11:43:46.580Z,3.80
2022-08-24T11:44:46.596Z,3.80
2022-08-24T11:45:46.561Z,3.90
2022-08-24T11:46:46.589Z,3.70
2022-08-24T11:47:46.533Z,3.60
2022-08-24T11:48:46.536Z,3.70
2022-08-24T11:49:46.530Z,3.90
2022-08-24T11:50:46.507Z,3.90
2022-08-24T11:51:46.493Z,3.80
2022-08-24T11:52:46.494Z,3.80
2022-08-24T11:53:46.505Z,3.40
2022-08-24T11:54:46.477Z,3.30
2022-08-24T11:55:51.479Z,3.60
2022-08-24T11:56:46.459Z,3.40
2022-08-24T11:57:48.204Z,3.60
2022-08-24T11:58:46.438Z,3.60
2022-08-24T11:59:46.414Z,3.90
2022-08-24T12:00:46.406Z,3.50
2022-08-24T12:01:46.495Z,3.00
2022-08-24T12:02:46.470Z,3.40
2022-08-24T12:03:50.604Z,3.50
2022-08-24T12:04:46.369Z,3.00
2022-08-24T12:05:46.352Z,3.30
2022-08-24T12:06:46.366Z,3.30
2022-08-24T12:08:00.674Z,3.70
2022-08-24T12:08:46.338Z,3.10
2022-08-24T12:09:46.310Z,3.60
2022-08-24T12:10:46.298Z,3.90
2022-08-24T12:11:46.287Z,3.20
2022-08-24T12:12:46.284Z,3.10
2022-08-24T12:13:46.271Z,3.30
2022-08-24T12:14:46.259Z,3.10
2022-08-24T12:15:51.371Z,3.40
2022-08-24T12:16:46.388Z,2.90
2022-08-24T12:17:46.227Z,3.10
2022-08-24T12:18:46.241Z,3.20
2022-08-24T12:19:46.212Z,3.10
2022-08-24T12:20:48.001Z,3.40
2022-08-24T12:21:46.180Z,3.00
2022-08-24T12:22:46.175Z,3.10
2022-08-24T12:23:46.168Z,2.90
2022-08-24T12:24:46.151Z,3.10
2022-08-24T12:25:46.141Z,3.00
2022-08-24T12:26:46.163Z,3.00
2022-08-24T12:27:46.116Z,3.10
2022-08-24T12:28:46.127Z,2.90
2022-08-24T12:29:46.101Z,2.60
2022-08-24T12:30:46.089Z,3.50
2022-08-24T12:31:46.182Z,3.10
2022-08-24T12:32:46.068Z,2.90
2022-08-24T12:33:46.068Z,3.00
2022-08-24T12:34:46.045Z,2.90
2022-08-24T12:35:46.051Z,3.10
2022-08-24T12:36:46.026Z,2.80
2022-08-24T12:37:46.012Z,3.00
2022-08-24T12:38:46.014Z,3.00
2022-08-24T12:39:46.023Z,2.50
2022-08-24T12:40:45.982Z,2.50
2022-08-24T12:41:45.978Z,2.80
2022-08-24T12:42:49.966Z,3.00
2022-08-24T12:43:45.971Z,3.00
2022-08-24T12:44:45.942Z,3.00
2022-08-24T12:45:45.923Z,2.70
2022-08-24T12:46:45.973Z,3.00
2022-08-24T12:47:45.920Z,2.60
2022-08-24T12:48:45.912Z,2.60
2022-08-24T12:49:45.883Z,3.30
2022-08-24T12:50:45.892Z,2.80
2022-08-24T12:51:45.865Z,3.10
2022-08-24T12:52:45.869Z,2.70
2022-08-24T12:53:45.869Z,2.50
2022-08-24T12:54:45.847Z,2.20
2022-08-24T12:55:50.326Z,2.60
2022-08-24T12:56:45.823Z,2.70
2022-08-24T12:57:53.855Z,2.90
2022-08-24T12:58:54.472Z,2.60
2022-08-24T12:59:45.801Z,2.70
2022-08-24T13:00:45.829Z,2.70
2022-08-24T13:01:45.811Z,2.60
2022-08-24T13:02:48.323Z,2.50
2022-08-24T13:03:45.757Z,2.80
2022-08-24T13:04:45.738Z,2.70
2022-08-24T13:05:45.729Z,2.80
2022-08-24T13:06:45.723Z,2.80
2022-08-24T13:07:45.697Z,3.10
2022-08-24T13:08:46.148Z,2.40
2022-08-24T13:09:45.675Z,3.00
2022-08-24T13:10:45.675Z,2.80
2022-08-24T13:11:45.661Z,2.70
2022-08-24T13:12:45.662Z,2.30
2022-08-24T13:13:45.648Z,2.80
2022-08-24T13:14:45.633Z,2.70
2022-08-24T13:15:45.673Z,2.80
2022-08-24T13:16:45.616Z,2.80
2022-08-24T13:17:45.602Z,2.50
2022-08-24T13:18:45.607Z,2.80